createdAt,value
2017-08-29T00:01:56.290Z,21.10
2017-08-29T00:04:25.340Z,21.10
2017-08-29T00:06:53.481Z,21.00
2017-08-29T00:09:22.086Z,20.90
2017-08-29T00:11:50.038Z,20.80
2017-08-29T00:14:17.556Z,20.80
2017-08-29T00:16:45.222Z,20.80
2017-08-29T00:19:13.379Z,20.70
2017-08-29T00:21:40.887Z,20.70
2017-08-29T00:24:09.460Z,20.70
2017-08-29T00:26:36.972Z,20.70
2017-08-29T00:29:04.481Z,20.60
2017-08-29T00:31:32.089Z,20.50
2017-08-29T00:33:59.589Z,20.60
2017-08-29T00:36:27.204Z,20.50
2017-08-29T00:38:54.714Z,20.60
2017-08-29T00:41:22.241Z,20.50
2017-08-29T00:43:50.544Z,20.50
2017-08-29T00:46:18.057Z,20.50
2017-08-29T00:48:45.744Z,20.40
2017-08-29T00:51:13.614Z,20.40
2017-08-29T00:53:42.773Z,20.40
2017-08-29T00:56:10.273Z,20.40
2017-08-29T00:58:38.413Z,20.40
2017-08-29T01:01:06.301Z,20.40
2017-08-29T01:03:34.601Z,20.40
2017-08-29T01:06:02.748Z,20.40
2017-08-29T01:08:32.063Z,20.40
2017-08-29T01:11:00.112Z,20.30
2017-08-29T01:13:27.625Z,20.30
2017-08-29T01:15:55.672Z,20.30
2017-08-29T01:18:23.633Z,20.20
2017-08-29T01:20:51.141Z,20.20
2017-08-29T01:23:19.126Z,20.20
2017-08-29T01:25:46.656Z,20.10
2017-08-29T01:28:14.155Z,20.10
2017-08-29T01:30:41.837Z,20.00
2017-08-29T01:33:09.355Z,19.90
2017-08-29T01:35:37.129Z,20.00
2017-08-29T01:38:05.438Z,19.90
2017-08-29T01:40:33.485Z,19.90
2017-08-29T01:43:01.628Z,19.90
2017-08-29T01:45:29.132Z,19.80
2017-08-29T01:47:57.285Z,19.80
2017-08-29T01:50:27.038Z,19.70
2017-08-29T01:52:54.641Z,19.70
2017-08-29T01:55:22.207Z,19.70
2017-08-29T01:57:50.170Z,19.70
2017-08-29T02:00:17.767Z,19.70
2017-08-29T02:02:45.276Z,19.70
2017-08-29T02:05:13.422Z,19.70
2017-08-29T02:07:41.677Z,19.70
2017-08-29T02:10:09.737Z,19.70
2017-08-29T02:12:38.606Z,19.70
2017-08-29T02:15:06.203Z,19.70
2017-08-29T02:17:34.248Z,19.70
2017-08-29T02:20:01.757Z,19.60
2017-08-29T02:22:30.029Z,19.60
2017-08-29T02:24:57.542Z,19.60
2017-08-29T02:27:25.768Z,19.50
2017-08-29T02:29:53.561Z,19.50
2017-08-29T02:32:21.051Z,19.50
2017-08-29T02:34:48.568Z,19.50
2017-08-29T02:37:16.074Z,19.40
2017-08-29T02:39:43.568Z,19.40
2017-08-29T02:42:12.652Z,19.40
2017-08-29T02:44:40.830Z,19.40
2017-08-29T02:47:08.876Z,19.40
2017-08-29T02:49:36.564Z,19.40
2017-08-29T02:52:04.070Z,19.40
2017-08-29T02:54:31.586Z,19.40
2017-08-29T02:56:59.718Z,19.40
2017-08-29T02:59:27.225Z,19.40
2017-08-29T03:01:55.553Z,19.30
2017-08-29T03:04:23.064Z,19.30
2017-08-29T03:06:51.286Z,19.20
2017-08-29T03:09:19.185Z,19.20
2017-08-29T03:11:47.229Z,19.20
2017-08-29T03:14:14.752Z,19.20
2017-08-29T03:16:42.248Z,19.10
2017-08-29T03:19:10.406Z,19.20
2017-08-29T03:21:38.347Z,19.10
2017-08-29T03:24:06.374Z,19.10
2017-08-29T03:26:34.100Z,19.10
2017-08-29T03:29:02.063Z,19.10
2017-08-29T03:31:29.580Z,19.10
2017-08-29T03:33:57.350Z,19.10
2017-08-29T03:36:25.668Z,19.10
2017-08-29T03:38:53.124Z,19.00
2017-08-29T03:41:20.623Z,19.10
2017-08-29T03:43:48.961Z,19.00
2017-08-29T03:46:16.547Z,19.00
2017-08-29T03:48:44.121Z,18.90
2017-08-29T03:51:11.655Z,18.90
2017-08-29T03:53:39.985Z,18.90
2017-08-29T03:56:08.116Z,18.90
2017-08-29T03:58:35.978Z,18.80
2017-08-29T04:01:03.488Z,18.90
2017-08-29T04:03:31.011Z,18.80
2017-08-29T04:05:58.958Z,18.80
2017-08-29T04:08:26.785Z,18.80
2017-08-29T04:10:54.334Z,18.80
2017-08-29T04:13:22.375Z,18.80
2017-08-29T04:15:49.983Z,18.70
2017-08-29T04:18:18.033Z,18.80
2017-08-29T04:20:45.546Z,18.80
2017-08-29T04:23:14.250Z,18.80
2017-08-29T04:25:41.816Z,18.80
2017-08-29T04:28:09.785Z,18.80
2017-08-29T04:30:37.479Z,18.70
2017-08-29T04:33:04.979Z,18.70
2017-08-29T04:35:32.485Z,18.70
2017-08-29T04:37:59.969Z,18.60
2017-08-29T04:40:28.096Z,18.60
2017-08-29T04:42:55.623Z,18.70
2017-08-29T04:45:24.930Z,18.60
2017-08-29T04:47:52.890Z,18.60
2017-08-29T04:50:20.493Z,18.70
2017-08-29T04:52:47.987Z,18.60
2017-08-29T04:55:17.562Z,18.70
2017-08-29T04:57:45.525Z,18.60
2017-08-29T05:00:13.063Z,18.70
2017-08-29T05:02:41.113Z,18.60
2017-08-29T05:05:08.809Z,18.60
2017-08-29T05:07:36.973Z,18.60
2017-08-29T05:10:06.029Z,18.60
2017-08-29T05:12:33.653Z,18.60
2017-08-29T05:15:01.098Z,18.60
2017-08-29T05:17:30.483Z,18.60
2017-08-29T05:19:58.389Z,18.60
2017-08-29T05:22:26.296Z,18.60
2017-08-29T05:24:54.892Z,18.50
2017-08-29T05:27:22.335Z,18.50
2017-08-29T05:29:50.031Z,18.50
2017-08-29T05:32:17.472Z,18.50
2017-08-29T05:34:44.976Z,18.60
2017-08-29T05:37:12.968Z,18.60
2017-08-29T05:39:40.441Z,18.60
2017-08-29T05:42:08.574Z,18.60
2017-08-29T05:44:36.061Z,18.70
2017-08-29T05:47:03.516Z,18.70
2017-08-29T05:49:30.995Z,18.70
2017-08-29T05:51:58.430Z,18.80
2017-08-29T05:54:26.785Z,18.80
2017-08-29T05:56:54.560Z,18.90
2017-08-29T05:59:22.041Z,18.90
2017-08-29T06:01:49.944Z,19.00
2017-08-29T06:04:17.405Z,19.00
2017-08-29T06:06:46.058Z,19.10
2017-08-29T06:09:13.537Z,19.10
2017-08-29T06:11:41.348Z,19.10
2017-08-29T06:14:09.593Z,19.20
2017-08-29T06:16:37.029Z,19.20
2017-08-29T06:19:05.104Z,19.30
2017-08-29T06:21:33.521Z,19.30
2017-08-29T06:24:01.264Z,19.40
2017-08-29T06:26:28.789Z,19.40
2017-08-29T06:28:56.224Z,19.50
2017-08-29T06:31:23.811Z,19.60
2017-08-29T06:33:51.762Z,19.60
2017-08-29T06:36:19.567Z,19.60
2017-08-29T06:38:47.011Z,19.70
2017-08-29T06:41:15.032Z,19.80
2017-08-29T06:43:42.473Z,19.80
2017-08-29T06:46:09.910Z,19.90
2017-08-29T06:48:37.385Z,20.00
2017-08-29T06:51:05.094Z,20.00
2017-08-29T06:53:32.863Z,20.10
2017-08-29T06:56:00.335Z,20.20
2017-08-29T06:58:28.448Z,20.30
2017-08-29T07:00:55.906Z,20.40
2017-08-29T07:03:23.391Z,20.50
2017-08-29T07:05:51.400Z,20.50
2017-08-29T07:08:20.879Z,20.70
2017-08-29T07:10:49.115Z,20.70
2017-08-29T07:13:16.671Z,20.70
2017-08-29T07:15:44.233Z,20.80
2017-08-29T07:18:12.898Z,20.90
2017-08-29T07:20:40.531Z,20.90
2017-08-29T07:23:08.551Z,21.00
2017-08-29T07:25:36.002Z,21.00
2017-08-29T07:28:03.492Z,21.10
2017-08-29T07:30:30.969Z,21.10
2017-08-29T07:32:58.637Z,21.20
2017-08-29T07:35:26.072Z,21.20
2017-08-29T07:37:53.895Z,21.30
2017-08-29T07:40:22.002Z,21.40
2017-08-29T07:42:49.486Z,21.50
2017-08-29T07:45:16.940Z,21.60
2017-08-29T07:47:44.429Z,21.70
2017-08-29T07:50:11.887Z,21.80
2017-08-29T07:52:39.467Z,21.90
2017-08-29T07:55:07.377Z,21.90
2017-08-29T07:57:35.331Z,22.00
2017-08-29T08:00:02.854Z,22.00
2017-08-29T08:02:30.346Z,22.10
2017-08-29T08:04:58.147Z,22.10
2017-08-29T08:07:25.991Z,22.10
2017-08-29T08:09:53.534Z,22.10
2017-08-29T08:12:20.999Z,22.20
2017-08-29T08:14:48.562Z,22.20
2017-08-29T08:17:16.007Z,22.20
2017-08-29T08:19:43.849Z,22.30
2017-08-29T08:22:11.767Z,22.40
2017-08-29T08:24:39.242Z,22.40
2017-08-29T08:27:07.580Z,22.50
2017-08-29T08:29:35.689Z,22.60
2017-08-29T08:32:03.131Z,22.70
2017-08-29T08:34:30.676Z,22.70
2017-08-29T08:36:58.125Z,22.80
2017-08-29T08:39:25.593Z,22.80
2017-08-29T08:41:53.093Z,22.90
2017-08-29T08:44:20.556Z,23.00
2017-08-29T08:46:48.022Z,23.00
2017-08-29T08:49:15.472Z,23.10
2017-08-29T08:51:43.212Z,23.20
2017-08-29T08:54:11.189Z,23.20
2017-08-29T08:56:39.519Z,23.30
2017-08-29T08:59:07.012Z,23.30
2017-08-29T09:01:34.503Z,23.40
2017-08-29T09:04:02.266Z,23.40
2017-08-29T09:06:29.728Z,23.50
2017-08-29T09:08:57.686Z,23.60
2017-08-29T09:11:25.152Z,23.60
2017-08-29T09:13:52.930Z,23.70
2017-08-29T09:16:20.374Z,23.80
2017-08-29T09:18:48.715Z,23.90
2017-08-29T09:21:16.609Z,24.00
2017-08-29T09:23:44.542Z,24.10
2017-08-29T09:26:11.988Z,24.20
2017-08-29T09:28:40.265Z,24.40
2017-08-29T09:31:07.772Z,24.40
2017-08-29T09:33:35.234Z,24.50
2017-08-29T09:36:02.710Z,24.60
2017-08-29T09:38:30.172Z,24.70
2017-08-29T09:40:58.056Z,24.80
2017-08-29T09:43:25.495Z,24.90
2017-08-29T09:45:52.969Z,25.00
2017-08-29T09:48:20.421Z,25.10
2017-08-29T09:50:49.459Z,25.20
2017-08-29T09:53:17.899Z,25.20
2017-08-29T09:55:45.578Z,25.40
2017-08-29T09:58:13.390Z,25.40
2017-08-29T10:00:41.269Z,25.50
2017-08-29T10:03:08.724Z,25.60
2017-08-29T10:05:36.810Z,25.70
2017-08-29T10:08:04.924Z,25.70
2017-08-29T10:10:32.737Z,25.80
2017-08-29T10:13:00.183Z,25.80
2017-08-29T10:15:28.061Z,25.90
2017-08-29T10:17:56.177Z,26.00
2017-08-29T10:20:23.641Z,26.10
2017-08-29T10:22:51.726Z,26.20
2017-08-29T10:25:19.181Z,26.30
2017-08-29T10:27:46.635Z,26.40
2017-08-29T10:30:14.109Z,26.40
2017-08-29T10:32:41.571Z,26.50
2017-08-29T10:35:09.331Z,26.60
2017-08-29T10:37:37.012Z,26.80
2017-08-29T10:40:04.450Z,26.80
2017-08-29T10:42:31.901Z,26.90
2017-08-29T10:44:59.376Z,27.00
2017-08-29T10:47:27.299Z,27.10
2017-08-29T10:49:54.760Z,27.20
2017-08-29T10:52:22.661Z,27.30
2017-08-29T10:54:50.903Z,27.40
2017-08-29T10:57:18.781Z,27.60
2017-08-29T10:59:46.502Z,27.70
2017-08-29T11:02:14.008Z,27.80
2017-08-29T11:04:41.797Z,27.90
2017-08-29T11:07:09.749Z,28.00
2017-08-29T11:09:38.519Z,28.20
2017-08-29T11:12:06.757Z,28.40
2017-08-29T11:14:34.237Z,28.30
2017-08-29T11:17:01.726Z,28.60
2017-08-29T11:19:29.522Z,28.70
2017-08-29T11:21:57.556Z,28.80
2017-08-29T11:24:25.028Z,29.00
2017-08-29T11:26:52.538Z,29.00
2017-08-29T11:29:19.995Z,29.10
2017-08-29T11:31:47.474Z,29.30
2017-08-29T11:34:15.800Z,29.30
2017-08-29T11:36:44.897Z,29.50
2017-08-29T11:39:13.115Z,29.50
2017-08-29T11:41:40.598Z,29.40
2017-08-29T11:44:08.329Z,29.50
2017-08-29T11:46:36.374Z,29.60
2017-08-29T11:49:03.850Z,29.70
2017-08-29T11:51:31.740Z,29.90
2017-08-29T11:53:59.941Z,30.00
2017-08-29T11:56:28.360Z,30.20
2017-08-29T11:58:56.313Z,30.10
2017-08-29T12:01:23.760Z,30.30
2017-08-29T12:03:51.832Z,30.40
2017-08-29T12:06:19.384Z,30.50
2017-08-29T12:08:47.245Z,30.50
2017-08-29T12:11:14.718Z,30.60
2017-08-29T12:13:42.198Z,30.70
2017-08-29T12:16:09.778Z,30.80
2017-08-29T12:18:37.719Z,30.80
2017-08-29T12:21:05.656Z,30.80
2017-08-29T12:23:33.660Z,30.90
2017-08-29T12:26:01.093Z,31.00
2017-08-29T12:28:28.572Z,31.10
2017-08-29T12:30:56.027Z,31.00
2017-08-29T12:33:25.128Z,31.10
2017-08-29T12:35:52.564Z,31.20
2017-08-29T12:38:20.037Z,31.30
2017-08-29T12:40:47.872Z,31.40
2017-08-29T12:43:15.399Z,31.60
2017-08-29T12:45:42.846Z,31.60
2017-08-29T12:48:11.105Z,31.90
2017-08-29T12:50:38.560Z,31.90
2017-08-29T12:53:08.485Z,31.90
2017-08-29T12:55:36.090Z,31.90
2017-08-29T12:58:04.035Z,31.90
2017-08-29T13:00:32.081Z,32.10
2017-08-29T13:03:00.559Z,32.20
2017-08-29T13:05:28.050Z,32.30
2017-08-29T13:07:56.559Z,32.30
2017-08-29T13:10:24.397Z,32.30
2017-08-29T13:12:51.887Z,32.30
2017-08-29T13:15:19.354Z,32.20
2017-08-29T13:17:47.279Z,32.30
2017-08-29T13:20:15.706Z,32.50
2017-08-29T13:22:43.355Z,32.50
2017-08-29T13:25:10.995Z,32.50
2017-08-29T13:27:38.950Z,32.50
2017-08-29T13:30:06.425Z,32.30
2017-08-29T13:32:33.869Z,32.30
2017-08-29T13:35:01.437Z,32.40
2017-08-29T13:37:29.391Z,32.50
2017-08-29T13:39:56.837Z,32.70
2017-08-29T13:42:24.312Z,32.80
2017-08-29T13:44:51.981Z,32.90
2017-08-29T13:47:19.618Z,33.00
2017-08-29T13:49:47.073Z,33.00
2017-08-29T13:52:14.898Z,33.00
2017-08-29T13:54:42.986Z,33.10
2017-08-29T13:57:11.011Z,33.10
2017-08-29T13:59:39.308Z,33.30
2017-08-29T14:02:06.842Z,33.30
2017-08-29T14:04:34.308Z,33.50
2017-08-29T14:07:03.017Z,33.60
2017-08-29T14:09:30.897Z,33.80
2017-08-29T14:11:58.402Z,33.90
2017-08-29T14:14:26.049Z,33.90
2017-08-29T14:16:53.526Z,33.80
2017-08-29T14:19:21.460Z,33.80
2017-08-29T14:21:50.357Z,33.60
2017-08-29T14:24:17.809Z,33.60
2017-08-29T14:26:45.301Z,33.60
2017-08-29T14:29:13.004Z,33.50
2017-08-29T14:31:40.689Z,33.40
2017-08-29T14:34:08.145Z,33.30
2017-08-29T14:36:35.842Z,33.30
2017-08-29T14:39:03.288Z,33.40
2017-08-29T14:41:30.814Z,33.30
2017-08-29T14:43:58.250Z,33.30
2017-08-29T14:46:37.739Z,33.20
2017-08-29T14:49:14.810Z,33.30
2017-08-29T14:51:42.308Z,33.40
2017-08-29T14:54:10.191Z,33.50
2017-08-29T14:56:39.385Z,33.60
2017-08-29T14:59:06.843Z,33.70
2017-08-29T15:01:34.309Z,33.80
2017-08-29T15:04:01.782Z,33.90
2017-08-29T15:06:29.255Z,33.90
2017-08-29T15:08:57.042Z,34.00
2017-08-29T15:11:24.866Z,34.00
2017-08-29T15:13:52.660Z,34.00
2017-08-29T15:16:21.283Z,34.10
2017-08-29T15:18:49.347Z,34.10
2017-08-29T15:21:16.846Z,34.10
2017-08-29T15:23:44.799Z,34.10
2017-08-29T15:26:12.363Z,34.10
2017-08-29T15:28:40.442Z,34.10
2017-08-29T15:31:08.777Z,33.90
2017-08-29T15:33:37.038Z,33.80
2017-08-29T15:36:04.674Z,33.80
2017-08-29T15:38:32.442Z,33.80
2017-08-29T15:40:59.893Z,33.80
2017-08-29T15:43:27.362Z,33.70
2017-08-29T15:45:55.043Z,33.80
2017-08-29T15:48:22.900Z,33.80
2017-08-29T15:50:50.365Z,33.80
2017-08-29T15:53:19.613Z,33.80
2017-08-29T15:55:47.075Z,33.70
2017-08-29T15:58:14.798Z,33.70
2017-08-29T16:00:42.325Z,33.70
2017-08-29T16:03:10.263Z,33.60
2017-08-29T16:05:37.806Z,33.60
2017-08-29T16:08:05.745Z,33.60
2017-08-29T16:10:33.857Z,33.60
2017-08-29T16:13:01.586Z,33.50
2017-08-29T16:15:29.049Z,33.50
2017-08-29T16:17:57.962Z,33.50
2017-08-29T16:20:25.529Z,33.40
2017-08-29T16:22:53.831Z,33.30
2017-08-29T16:25:21.327Z,33.20
2017-08-29T16:27:48.993Z,33.10
2017-08-29T16:30:16.796Z,33.10
2017-08-29T16:32:44.240Z,32.90
2017-08-29T16:35:12.105Z,32.90
2017-08-29T16:37:39.714Z,32.80
2017-08-29T16:40:07.752Z,32.80
2017-08-29T16:42:35.236Z,32.70
2017-08-29T16:45:02.844Z,32.70
2017-08-29T16:47:30.805Z,32.60
2017-08-29T16:49:58.264Z,32.60
2017-08-29T16:52:25.822Z,32.50
2017-08-29T16:54:53.933Z,32.40
2017-08-29T16:57:22.107Z,32.30
2017-08-29T16:59:50.257Z,32.30
2017-08-29T17:02:18.281Z,32.30
2017-08-29T17:04:46.637Z,32.20
2017-08-29T17:07:15.278Z,32.10
2017-08-29T17:09:42.736Z,32.10
2017-08-29T17:12:10.617Z,32.00
2017-08-29T17:14:38.270Z,31.90
2017-08-29T17:17:06.046Z,31.90
2017-08-29T17:19:34.203Z,31.80
2017-08-29T17:22:03.063Z,31.60
2017-08-29T17:24:30.521Z,31.60
2017-08-29T17:26:58.012Z,31.50
2017-08-29T17:29:25.536Z,31.40
2017-08-29T17:31:53.294Z,31.30
2017-08-29T17:34:20.753Z,31.20
2017-08-29T17:36:48.225Z,31.10
2017-08-29T17:39:16.441Z,30.90
2017-08-29T17:41:43.993Z,30.90
2017-08-29T17:44:11.481Z,30.80
2017-08-29T17:46:38.949Z,30.70
2017-08-29T17:49:07.056Z,30.60
2017-08-29T17:51:34.524Z,30.50
2017-08-29T17:54:02.424Z,30.40
2017-08-29T17:56:30.400Z,30.30
2017-08-29T17:59:00.310Z,30.20
2017-08-29T18:01:28.350Z,30.10
2017-08-29T18:03:55.833Z,30.00
2017-08-29T18:06:23.302Z,29.90
2017-08-29T18:08:51.292Z,29.80
2017-08-29T18:11:20.057Z,29.60
2017-08-29T18:13:47.521Z,29.60
2017-08-29T18:16:15.003Z,29.50
2017-08-29T18:18:43.210Z,29.40
2017-08-29T18:21:10.695Z,29.30
2017-08-29T18:23:39.925Z,29.30
2017-08-29T18:26:07.476Z,29.10
2017-08-29T18:28:37.554Z,28.90
2017-08-29T18:31:05.019Z,28.90
2017-08-29T18:33:32.773Z,28.90
2017-08-29T18:36:00.221Z,28.80
2017-08-29T18:38:27.707Z,28.70
2017-08-29T18:40:55.148Z,28.60
2017-08-29T18:43:23.396Z,28.50
2017-08-29T18:45:51.427Z,28.40
2017-08-29T18:48:19.213Z,28.40
2017-08-29T18:50:46.697Z,28.30
2017-08-29T18:53:15.014Z,28.20
2017-08-29T18:55:42.942Z,28.20
2017-08-29T18:58:10.772Z,28.10
2017-08-29T19:00:38.626Z,28.00
2017-08-29T19:03:06.071Z,27.90
2017-08-29T19:05:33.553Z,27.90
2017-08-29T19:08:01.686Z,27.80
2017-08-29T19:10:29.130Z,27.70
2017-08-29T19:12:56.933Z,27.70
2017-08-29T19:15:24.469Z,27.60
2017-08-29T19:17:52.326Z,27.60
2017-08-29T19:20:20.987Z,27.50
2017-08-29T19:22:48.801Z,27.50
2017-08-29T19:25:16.631Z,27.40
2017-08-29T19:27:44.401Z,27.40
2017-08-29T19:30:11.845Z,27.40
2017-08-29T19:32:39.339Z,27.30
2017-08-29T19:35:06.785Z,27.30
2017-08-29T19:37:34.615Z,27.20
2017-08-29T19:40:03.171Z,27.20
2017-08-29T19:42:30.654Z,27.20
2017-08-29T19:44:58.284Z,27.00
2017-08-29T19:47:25.905Z,27.00
2017-08-29T19:49:53.379Z,26.90
2017-08-29T19:52:20.886Z,26.90
2017-08-29T19:54:48.909Z,26.80
2017-08-29T19:57:16.748Z,26.80
2017-08-29T19:59:44.274Z,26.80
2017-08-29T20:02:11.733Z,26.80
2017-08-29T20:04:39.248Z,26.70
2017-08-29T20:07:08.301Z,26.70
2017-08-29T20:09:35.814Z,26.60
2017-08-29T20:12:03.632Z,26.50
2017-08-29T20:14:31.122Z,26.50
2017-08-29T20:16:58.579Z,26.50
2017-08-29T20:19:27.337Z,26.40
2017-08-29T20:21:56.028Z,26.40
2017-08-29T20:24:23.497Z,26.40
2017-08-29T20:26:50.965Z,26.40
2017-08-29T20:29:18.470Z,26.30
2017-08-29T20:31:46.293Z,26.30
2017-08-29T20:34:13.750Z,26.20
2017-08-29T20:36:41.574Z,26.20
2017-08-29T20:39:09.034Z,26.20
2017-08-29T20:41:37.353Z,26.10
2017-08-29T20:44:04.802Z,26.20
2017-08-29T20:46:32.880Z,26.10
2017-08-29T20:49:00.360Z,26.10
2017-08-29T20:51:27.865Z,26.00
2017-08-29T20:53:56.322Z,26.00
2017-08-29T20:56:23.842Z,25.90
2017-08-29T20:58:51.639Z,25.90
2017-08-29T21:01:21.283Z,25.90
2017-08-29T21:03:49.302Z,25.80
2017-08-29T21:06:17.280Z,25.80
2017-08-29T21:08:46.547Z,25.70
2017-08-29T21:11:14.944Z,25.70
2017-08-29T21:13:43.173Z,25.70
2017-08-29T21:16:11.313Z,25.60
2017-08-29T21:18:40.045Z,25.60
2017-08-29T21:21:07.736Z,25.50
2017-08-29T21:23:36.223Z,25.50
2017-08-29T21:26:04.513Z,25.50
2017-08-29T21:28:32.238Z,25.50
2017-08-29T21:30:59.934Z,25.40
2017-08-29T21:33:27.511Z,25.30
2017-08-29T21:35:55.040Z,25.30
2017-08-29T21:38:22.736Z,25.30
2017-08-29T21:40:51.066Z,25.20
2017-08-29T21:43:19.553Z,25.20
2017-08-29T21:45:48.722Z,25.20
2017-08-29T21:48:16.474Z,25.10
2017-08-29T21:50:44.226Z,25.10
2017-08-29T21:53:11.944Z,25.10
2017-08-29T21:55:39.512Z,25.10
2017-08-29T21:58:07.531Z,25.10
2017-08-29T22:00:35.858Z,25.10
2017-08-29T22:03:05.115Z,25.00
2017-08-29T22:05:33.327Z,25.00
2017-08-29T22:08:01.492Z,24.90
2017-08-29T22:10:29.537Z,24.90
2017-08-29T22:12:58.319Z,24.80
2017-08-29T22:15:26.122Z,24.80
2017-08-29T22:17:54.685Z,24.80
2017-08-29T22:20:22.198Z,24.70
2017-08-29T22:22:50.601Z,24.70
2017-08-29T22:25:18.297Z,24.60
2017-08-29T22:27:46.617Z,24.60
2017-08-29T22:30:14.118Z,24.60
2017-08-29T22:32:42.529Z,24.50
2017-08-29T22:35:10.073Z,24.50
2017-08-29T22:37:38.105Z,24.50
2017-08-29T22:40:06.995Z,24.50
2017-08-29T22:42:34.760Z,24.40
2017-08-29T22:45:02.447Z,24.40
2017-08-29T22:47:29.953Z,24.40
2017-08-29T22:49:58.933Z,24.40
2017-08-29T22:52:26.771Z,24.40
2017-08-29T22:54:54.744Z,24.40
2017-08-29T22:57:22.967Z,24.40
2017-08-29T22:59:51.017Z,24.40
2017-08-29T23:02:19.927Z,24.40
2017-08-29T23:04:47.981Z,24.40
2017-08-29T23:07:16.880Z,24.30
2017-08-29T23:09:44.437Z,24.30
2017-08-29T23:12:12.852Z,24.30
2017-08-29T23:14:40.809Z,24.20
2017-08-29T23:17:08.369Z,24.20
2017-08-29T23:19:36.414Z,24.20
2017-08-29T23:22:05.365Z,24.20
2017-08-29T23:24:33.157Z,24.20
2017-08-29T23:27:01.377Z,24.20
2017-08-29T23:29:28.983Z,24.20
2017-08-29T23:31:56.725Z,24.20
2017-08-29T23:34:24.575Z,24.20
2017-08-29T23:36:52.462Z,24.20
2017-08-29T23:39:20.110Z,24.20
2017-08-29T23:41:48.107Z,24.10
2017-08-29T23:44:15.800Z,24.10
2017-08-29T23:46:43.445Z,24.00
2017-08-29T23:49:10.957Z,23.90
2017-08-29T23:51:38.926Z,23.90
2017-08-29T23:54:07.537Z,23.90
2017-08-29T23:56:37.757Z,24.00
2017-08-29T23:59:05.871Z,24.00
